Time;durP1;ratioP1;P1;durP2;ratioP2;P2;SDS_P1;SDS_P2;PMS_P1;PMS_P2;Temp;Humidity;BMP_temperature;BMP_pressure;BME280_temperature;BME280_humidity;BME280_pressure;Samples;Min_cycle;Max_cycle;Signal;HPM_P1;HPM_P2
2022/02/26 00:01:11;;;;;;;16.23;4.18;;;7.40;96.70;;;;;;5036296;28;20505;-64
2022/02/26 00:03:36;;;;;;;19.95;4.07;;;7.30;96.60;;;;;;5029280;28;20095;-64
2022/02/26 00:06:02;;;;;;;14.55;3.40;;;7.30;96.60;;;;;;5050225;28;20029;-64
2022/02/26 00:08:28;;;;;;;20.00;4.80;;;7.30;96.60;;;;;;5049915;28;20021;-64
2022/02/26 00:10:53;;;;;;;18.20;4.45;;;7.30;96.50;;;;;;5039657;28;20182;-64
2022/02/26 00:13:18;;;;;;;20.77;4.00;;;7.30;96.50;;;;;;5043547;28;20552;-64
2022/02/26 00:15:44;;;;;;;20.92;4.03;;;7.30;96.40;;;;;;5035322;28;20104;-64
2022/02/26 00:18:09;;;;;;;13.50;4.45;;;7.30;96.60;;;;;;5042049;28;20400;-64
2022/02/26 00:20:35;;;;;;;22.67;4.25;;;7.30;96.40;;;;;;5038102;28;20026;-64
2022/02/26 00:23:00;;;;;;;15.80;4.40;;;7.30;96.40;;;;;;5022635;28;20025;-64
2022/02/26 00:25:26;;;;;;;15.63;4.75;;;7.30;96.30;;;;;;5031721;28;20071;-63
2022/02/26 00:27:52;;;;;;;20.90;4.18;;;7.30;96.40;;;;;;5022501;28;20098;-65
2022/02/26 00:30:17;;;;;;;24.63;4.13;;;7.30;96.30;;;;;;5044652;28;20538;-64
2022/02/26 00:32:43;;;;;;;20.65;4.18;;;7.20;96.20;;;;;;5035897;28;20055;-64
2022/02/26 00:35:08;;;;;;;18.92;5.53;;;7.30;96.30;;;;;;5050242;28;20047;-64
2022/02/26 00:37:34;;;;;;;13.35;4.18;;;7.40;96.30;;;;;;5042485;28;20042;-64
2022/02/26 00:39:59;;;;;;;22.15;5.30;;;7.40;96.20;;;;;;5030836;28;20025;-64
2022/02/26 00:42:25;;;;;;;17.63;4.05;;;7.40;96.20;;;;;;5036355;28;20036;-64
2022/02/26 00:44:50;;;;;;;19.02;4.15;;;7.40;96.10;;;;;;5032672;28;20040;-64
2022/02/26 00:47:16;;;;;;;20.95;3.88;;;7.50;96.10;;;;;;5034717;28;20032;-64
2022/02/26 00:49:47;;;;;;;17.90;3.83;;;7.50;96.00;;;;;;5032704;28;20404;-65
2022/02/26 00:52:21;;;;;;;13.18;3.92;;;7.50;96.00;;;;;;5048626;28;20029;-64
2022/02/26 00:54:48;;;;;;;21.17;4.53;;;7.50;95.90;;;;;;5033976;28;20022;-64
2022/02/26 00:57:14;;;;;;;12.68;4.07;;;7.50;95.90;;;;;;5035018;28;20182;-64
2022/02/26 00:59:40;;;;;;;16.13;3.33;;;7.50;95.90;;;;;;5049332;28;20536;-64
2022/02/26 01:02:07;;;;;;;16.50;3.75;;;7.50;95.90;;;;;;5049662;28;20052;-64
2022/02/26 01:04:33;;;;;;;19.77;4.68;;;7.50;95.90;;;;;;5037716;28;20033;-64
2022/02/26 01:06:58;;;;;;;15.73;3.65;;;7.50;95.80;;;;;;5032164;28;20036;-64
2022/02/26 01:09:24;;;;;;;18.17;3.85;;;7.50;95.80;;;;;;5038991;28;20025;-64
2022/02/26 01:11:49;;;;;;;15.77;4.45;;;7.50;95.80;;;;;;5031015;28;20536;-64
2022/02/26 01:14:15;;;;;;;15.95;4.20;;;7.60;95.80;;;;;;5041842;28;20029;-64
2022/02/26 01:16:40;;;;;;;23.70;4.95;;;7.60;95.70;;;;;;5050759;28;20033;-64
2022/02/26 01:19:06;;;;;;;12.05;3.20;;;7.50;95.70;;;;;;5041177;28;20025;-64
2022/02/26 01:21:32;;;;;;;23.48;4.70;;;7.60;95.70;;;;;;5041139;28;20027;-64
2022/02/26 01:23:58;;;;;;;17.95;4.43;;;7.60;95.70;;;;;;5035981;28;20029;-64
2022/02/26 01:26:23;;;;;;;16.17;3.45;;;7.60;95.70;;;;;;5035513;28;20475;-64
2022/02/26 01:28:49;;;;;;;18.55;4.07;;;7.60;95.70;;;;;;5051683;28;20086;-64
2022/02/26 01:31:15;;;;;;;12.95;3.90;;;7.60;95.70;;;;;;5054525;28;20028;-64
2022/02/26 01:33:40;;;;;;;19.08;4.50;;;7.60;95.60;;;;;;5051156;28;20368;-64
2022/02/26 01:36:07;;;;;;;18.17;4.40;;;7.60;95.60;;;;;;5036599;28;20032;-64
2022/02/26 01:38:33;;;;;;;13.85;4.07;;;7.60;95.60;;;;;;5044534;28;20033;-64
2022/02/26 01:40:59;;;;;;;16.27;3.75;;;7.60;95.60;;;;;;5054526;28;20025;-64
2022/02/26 01:43:25;;;;;;;15.23;4.03;;;7.60;95.50;;;;;;5030994;28;20372;-64
2022/02/26 01:45:52;;;;;;;16.23;3.33;;;7.60;95.50;;;;;;5054704;28;20553;-65
2022/02/26 01:48:17;;;;;;;18.83;3.90;;;7.60;95.50;;;;;;5049550;28;20029;-64
2022/02/26 01:50:43;;;;;;;14.85;3.75;;;7.60;95.50;;;;;;5053505;28;20391;-64
2022/02/26 01:53:10;;;;;;;17.95;3.92;;;7.60;95.60;;;;;;5039972;28;20044;-64
2022/02/26 01:55:36;;;;;;;16.13;3.13;;;7.60;95.60;;;;;;5058532;28;20028;-64
2022/02/26 01:58:02;;;;;;;22.77;4.68;;;7.60;95.50;;;;;;5039917;28;20365;-64
2022/02/26 02:00:28;;;;;;;17.27;3.97;;;7.60;95.50;;;;;;5054268;28;20026;-64
2022/02/26 02:02:54;;;;;;;22.17;6.38;;;7.60;95.50;;;;;;5040120;28;20052;-64
2022/02/26 02:05:20;;;;;;;20.60;3.92;;;7.60;95.50;;;;;;5034116;28;20045;-64
2022/02/26 02:07:45;;;;;;;19.30;5.25;;;7.50;95.60;;;;;;5044354;28;20017;-64
2022/02/26 02:10:11;;;;;;;10.63;3.38;;;7.50;95.60;;;;;;5054266;28;20037;-64
2022/02/26 02:12:37;;;;;;;12.40;3.53;;;7.50;95.70;;;;;;5049888;28;20035;-64
2022/02/26 02:15:02;;;;;;;17.52;3.72;;;7.50;95.70;;;;;;5054263;28;20135;-64
2022/02/26 02:17:28;;;;;;;22.95;4.38;;;7.50;95.60;;;;;;5050098;28;20448;-64
2022/02/26 02:19:53;;;;;;;21.50;4.10;;;7.50;95.60;;;;;;5047916;28;20477;-64
2022/02/26 02:22:20;;;;;;;19.27;4.45;;;7.50;95.60;;;;;;5038826;28;20771;-64
2022/02/26 02:24:47;;;;;;;19.48;5.00;;;7.50;95.60;;;;;;5050601;28;20026;-64
2022/02/26 02:27:14;;;;;;;21.05;4.07;;;7.40;95.70;;;;;;5043802;28;20435;-64
2022/02/26 02:29:40;;;;;;;16.27;4.60;;;7.50;95.70;;;;;;5036078;28;20492;-64
2022/02/26 02:32:07;;;;;;;19.80;4.47;;;7.40;95.70;;;;;;5033973;28;20120;-64
2022/02/26 02:34:33;;;;;;;16.02;3.58;;;7.40;95.70;;;;;;5034487;28;20122;-64
2022/02/26 02:36:59;;;;;;;16.50;4.03;;;7.40;95.80;;;;;;5051636;28;20033;-64
2022/02/26 02:39:24;;;;;;;22.00;4.03;;;7.50;95.80;;;;;;5033216;28;20041;-64
2022/02/26 02:41:50;;;;;;;17.92;4.15;;;7.40;95.70;;;;;;5039797;28;20048;-64
2022/02/26 02:44:15;;;;;;;14.88;3.83;;;7.40;95.70;;;;;;5052641;28;20017;-64
2022/02/26 02:46:41;;;;;;;18.48;3.63;;;7.40;95.80;;;;;;5033171;28;20029;-64
2022/02/26 02:49:07;;;;;;;17.17;3.80;;;7.40;95.80;;;;;;5033635;28;20052;-64
2022/02/26 02:51:33;;;;;;;19.08;4.03;;;7.40;95.80;;;;;;5035959;28;20037;-63
2022/02/26 02:53:59;;;;;;;16.73;3.58;;;7.40;95.80;;;;;;5052231;28;20033;-64
2022/02/26 02:56:24;;;;;;;23.95;3.88;;;7.40;95.80;;;;;;5035466;28;20029;-64
2022/02/26 02:58:50;;;;;;;18.85;5.03;;;7.40;96.00;;;;;;5033175;28;20115;-64
2022/02/26 03:01:16;;;;;;;22.95;5.55;;;7.40;95.70;;;;;;5046741;28;20025;-63
2022/02/26 03:03:41;;;;;;;24.92;5.05;;;7.50;95.80;;;;;;5068235;28;20547;-64
2022/02/26 03:06:07;;;;;;;30.92;6.53;;;7.40;95.80;;;;;;5069523;28;20387;-65
2022/02/26 03:08:33;;;;;;;21.08;4.50;;;7.40;95.90;;;;;;5053159;28;20103;-64
2022/02/26 03:10:58;;;;;;;21.90;4.43;;;7.30;95.90;;;;;;5051885;28;20017;-64
2022/02/26 03:13:26;;;;;;;20.77;4.15;;;7.40;95.90;;;;;;5052004;28;20483;-64
2022/02/26 03:15:53;;;;;;;19.13;3.78;;;7.30;95.90;;;;;;5052324;28;20044;-64
2022/02/26 03:18:19;;;;;;;19.40;3.95;;;7.30;96.00;;;;;;5033300;28;20083;-64
2022/02/26 03:20:45;;;;;;;25.00;5.28;;;7.30;96.00;;;;;;5032710;28;20113;-64
2022/02/26 03:23:11;;;;;;;18.63;4.25;;;7.30;96.00;;;;;;5049257;28;20111;-63
2022/02/26 03:25:36;;;;;;;17.55;3.88;;;7.30;96.00;;;;;;5045685;28;20105;-64
2022/02/26 03:28:02;;;;;;;22.88;5.57;;;7.30;96.10;;;;;;5048612;28;20032;-64
2022/02/26 03:30:28;;;;;;;16.95;3.67;;;7.30;96.00;;;;;;5041735;28;20105;-64
2022/02/26 03:32:53;;;;;;;21.13;5.20;;;7.30;96.00;;;;;;5035231;28;20603;-65
2022/02/26 03:35:19;;;;;;;17.70;5.10;;;7.40;96.00;;;;;;5032978;28;20068;-64
2022/02/26 03:37:45;;;;;;;22.77;4.72;;;7.30;96.10;;;;;;5033939;28;20079;-64
2022/02/26 03:40:11;;;;;;;16.27;4.03;;;7.30;96.10;;;;;;5052773;28;20504;-64
2022/02/26 03:42:37;;;;;;;25.52;4.70;;;7.30;96.10;;;;;;5038332;28;20531;-64
2022/02/26 03:45:05;;;;;;;21.80;5.13;;;7.40;96.20;;;;;;5032490;28;20044;-64
2022/02/26 03:47:30;;;;;;;21.40;4.20;;;7.40;96.20;;;;;;5031536;28;20021;-64
2022/02/26 03:49:56;;;;;;;23.70;5.20;;;7.40;96.20;;;;;;5032735;28;20125;-64
2022/02/26 03:52:22;;;;;;;15.23;3.90;;;7.40;96.20;;;;;;5031846;28;20354;-64
2022/02/26 03:54:48;;;;;;;20.77;3.90;;;7.30;96.10;;;;;;5038549;28;20033;-64
2022/02/26 03:57:14;;;;;;;17.20;4.10;;;7.30;96.20;;;;;;5049932;28;20091;-64
2022/02/26 03:59:39;;;;;;;17.85;4.00;;;7.40;96.20;;;;;;5037211;28;20022;-64
2022/02/26 04:02:05;;;;;;;14.25;4.68;;;7.30;96.20;;;;;;5031833;28;20134;-64
2022/02/26 04:04:30;;;;;;;18.73;3.70;;;7.40;96.10;;;;;;5043727;28;20029;-64
2022/02/26 04:06:56;;;;;;;15.90;4.15;;;7.30;96.10;;;;;;5043461;28;20274;-64
2022/02/26 04:09:22;;;;;;;20.58;5.00;;;7.40;96.10;;;;;;5043076;28;20371;-63
2022/02/26 04:11:48;;;;;;;22.77;6.28;;;7.30;96.10;;;;;;5049606;28;20032;-63
2022/02/26 04:14:14;;;;;;;20.88;4.28;;;7.30;96.10;;;;;;5050840;28;20070;-64
2022/02/26 04:16:39;;;;;;;17.92;4.82;;;7.30;96.10;;;;;;5050391;28;20052;-64
2022/02/26 04:19:04;;;;;;;21.77;4.70;;;7.30;96.10;;;;;;5044264;28;20021;-63
2022/02/26 04:21:30;;;;;;;16.02;4.07;;;7.30;96.10;;;;;;5050186;28;20059;-63
2022/02/26 04:23:56;;;;;;;18.77;4.45;;;7.30;96.20;;;;;;5051092;28;20037;-64
2022/02/26 04:26:22;;;;;;;16.55;4.22;;;7.30;96.20;;;;;;5043604;28;20036;-64
2022/02/26 04:28:49;;;;;;;23.60;4.72;;;7.20;96.20;;;;;;5043992;28;20405;-64
2022/02/26 04:31:15;;;;;;;18.05;6.15;;;7.20;96.30;;;;;;5036810;28;20032;-64
2022/02/26 04:33:41;;;;;;;20.33;4.45;;;7.20;96.30;;;;;;5034237;28;20032;-63
2022/02/26 04:36:06;;;;;;;22.80;5.10;;;7.20;96.30;;;;;;5050011;28;20124;-63
2022/02/26 04:38:35;;;;;;;21.95;7.10;;;7.10;96.40;;;;;;5050652;28;20040;-64
2022/02/26 04:41:01;;;;;;;22.67;5.10;;;6.90;96.50;;;;;;5031172;28;20025;-63
2022/02/26 04:43:27;;;;;;;25.70;4.60;;;6.90;96.50;;;;;;5049561;28;20029;-64
2022/02/26 04:45:53;;;;;;;23.02;4.40;;;6.90;96.50;;;;;;5031405;28;20029;-64
2022/02/26 04:48:18;;;;;;;24.85;6.03;;;6.90;96.50;;;;;;5049880;28;20028;-64
2022/02/26 04:50:44;;;;;;;19.88;4.68;;;6.80;96.50;;;;;;5034040;28;20025;-64
2022/02/26 04:53:09;;;;;;;14.40;4.15;;;6.90;96.60;;;;;;5034399;28;20441;-64
2022/02/26 04:55:35;;;;;;;20.23;4.72;;;6.90;96.60;;;;;;5053082;28;20029;-65
2022/02/26 04:58:00;;;;;;;20.52;4.13;;;6.90;96.60;;;;;;5051971;28;20044;-64
2022/02/26 05:00:26;;;;;;;13.00;3.50;;;6.80;96.70;;;;;;5049831;28;20096;-64
2022/02/26 05:02:52;;;;;;;17.63;5.05;;;6.80;96.70;;;;;;5038759;28;20052;-63
2022/02/26 05:05:18;;;;;;;21.10;5.50;;;6.80;96.70;;;;;;5030941;28;20112;-64
2022/02/26 05:07:44;;;;;;;18.15;3.92;;;6.80;96.80;;;;;;5040369;28;20139;-63
2022/02/26 05:10:09;;;;;;;18.23;3.78;;;6.80;96.80;;;;;;5051149;28;20021;-64
2022/02/26 05:12:35;;;;;;;16.20;3.72;;;6.70;96.90;;;;;;5040164;28;20083;-63
2022/02/26 05:15:01;;;;;;;24.50;3.97;;;6.80;96.90;;;;;;5030635;28;20060;-63
2022/02/26 05:17:27;;;;;;;17.35;4.30;;;6.80;96.90;;;;;;5042724;28;20446;-63
2022/02/26 05:19:52;;;;;;;15.00;5.18;;;6.90;96.90;;;;;;5050957;28;20020;-63
2022/02/26 05:22:18;;;;;;;21.08;4.57;;;6.90;96.90;;;;;;5049383;28;20029;-63
2022/02/26 05:24:44;;;;;;;25.10;5.78;;;7.00;96.90;;;;;;5047611;28;20034;-63
2022/02/26 05:27:10;;;;;;;19.20;4.35;;;7.00;96.80;;;;;;5041594;28;20037;-63
2022/02/26 05:29:36;;;;;;;17.13;3.80;;;7.10;96.80;;;;;;5032183;28;20021;-63
2022/02/26 05:32:01;;;;;;;20.38;4.55;;;7.10;96.70;;;;;;5041663;28;20034;-64
2022/02/26 05:34:27;;;;;;;17.05;4.03;;;7.10;96.60;;;;;;5031055;28;20021;-63
2022/02/26 05:36:52;;;;;;;18.05;4.82;;;7.10;96.60;;;;;;5037159;28;20037;-63
2022/02/26 05:39:18;;;;;;;14.18;4.32;;;7.20;96.60;;;;;;5050995;28;20025;-63
2022/02/26 05:41:43;;;;;;;13.45;4.85;;;7.10;96.50;;;;;;5048994;28;20071;-64
2022/02/26 05:44:08;;;;;;;18.85;4.40;;;7.20;96.50;;;;;;5050781;28;20036;-63
2022/02/26 05:46:34;;;;;;;22.42;4.25;;;7.20;96.40;;;;;;5038253;28;20032;-64
2022/02/26 05:49:00;;;;;;;20.95;4.75;;;7.20;96.40;;;;;;5050498;28;20032;-63
2022/02/26 05:51:26;;;;;;;16.40;3.65;;;7.20;96.40;;;;;;5030822;28;20018;-63
2022/02/26 05:53:51;;;;;;;17.27;4.45;;;7.20;96.40;;;;;;5050440;28;20040;-63
2022/02/26 05:56:17;;;;;;;18.55;4.20;;;7.30;96.40;;;;;;5038865;28;20025;-63
2022/02/26 05:58:42;;;;;;;22.77;3.75;;;7.30;96.30;;;;;;5050538;28;20033;-63
2022/02/26 06:01:08;;;;;;;14.02;3.60;;;7.40;96.30;;;;;;5040386;28;20048;-62
2022/02/26 06:03:33;;;;;;;18.00;4.60;;;7.40;96.30;;;;;;5050524;28;20384;-64
2022/02/26 06:05:59;;;;;;;12.23;3.47;;;7.40;96.20;;;;;;5042076;28;20029;-65
2022/02/26 06:08:25;;;;;;;17.80;3.63;;;7.40;96.20;;;;;;5051056;28;20110;-64
2022/02/26 06:10:50;;;;;;;16.70;4.07;;;7.40;96.20;;;;;;5045161;28;20022;-63
2022/02/26 06:13:16;;;;;;;18.05;4.10;;;7.40;96.10;;;;;;5050672;28;20068;-63
2022/02/26 06:15:41;;;;;;;21.42;4.65;;;7.40;96.10;;;;;;5050197;28;20022;-65
2022/02/26 06:18:07;;;;;;;18.20;3.97;;;7.40;96.10;;;;;;5033703;28;20041;-64
2022/02/26 06:20:32;;;;;;;13.93;3.30;;;7.40;96.10;;;;;;5036268;28;20168;-63
2022/02/26 06:22:58;;;;;;;21.45;3.88;;;7.50;96.10;;;;;;5043344;28;20113;-64
2022/02/26 06:25:24;;;;;;;20.40;4.40;;;7.50;95.90;;;;;;5044985;28;20082;-63
2022/02/26 06:27:49;;;;;;;15.50;4.22;;;7.40;95.90;;;;;;5043218;28;20095;-64
2022/02/26 06:30:15;;;;;;;12.93;3.28;;;7.50;95.90;;;;;;5036166;28;20396;-63
2022/02/26 06:32:41;;;;;;;13.88;3.72;;;7.50;95.90;;;;;;5046397;28;20526;-64
2022/02/26 06:35:08;;;;;;;18.35;3.92;;;7.50;95.90;;;;;;5050012;28;20369;-64
2022/02/26 06:37:34;;;;;;;16.55;5.30;;;7.50;95.90;;;;;;5049744;28;20107;-63
2022/02/26 06:40:00;;;;;;;15.05;3.22;;;7.50;95.90;;;;;;5049935;28;20045;-64
2022/02/26 06:42:26;;;;;;;21.00;4.05;;;7.50;95.90;;;;;;5043992;28;20032;-64
2022/02/26 06:44:52;;;;;;;11.57;4.07;;;7.60;95.90;;;;;;5036828;28;20025;-64
2022/02/26 06:47:17;;;;;;;17.00;4.00;;;7.60;95.90;;;;;;5033076;28;20029;-63
2022/02/26 06:49:43;;;;;;;17.77;4.82;;;7.60;95.90;;;;;;5037511;28;20036;-63
2022/02/26 06:52:09;;;;;;;16.40;4.80;;;7.60;95.80;;;;;;5044690;28;20040;-64
2022/02/26 06:54:35;;;;;;;14.45;3.88;;;7.60;95.80;;;;;;5033379;28;20025;-64
2022/02/26 06:57:01;;;;;;;19.20;4.18;;;7.60;95.70;;;;;;5045159;28;20456;-63
2022/02/26 06:59:26;;;;;;;14.10;4.03;;;7.60;95.70;;;;;;5041431;28;20087;-63
2022/02/26 07:01:53;;;;;;;23.30;3.90;;;7.60;95.80;;;;;;5051261;28;20504;-64
2022/02/26 07:04:18;;;;;;;19.70;3.67;;;7.60;95.80;;;;;;5052889;28;20606;-64
2022/02/26 07:06:44;;;;;;;15.82;4.15;;;7.60;95.80;;;;;;5039979;28;20033;-63
2022/02/26 07:09:16;;;;;;;15.40;3.92;;;7.60;95.70;;;;;;5048095;28;20068;-64
2022/02/26 07:11:43;;;;;;;28.52;4.57;;;7.60;95.60;;;;;;5049563;28;20036;-64
2022/02/26 07:14:09;;;;;;;18.92;4.95;;;7.60;95.70;;;;;;5038157;28;20246;-64
2022/02/26 07:16:35;;;;;;;21.35;4.78;;;7.60;95.70;;;;;;5045011;28;20079;-63
2022/02/26 07:19:01;;;;;;;12.98;4.05;;;7.60;95.80;;;;;;5050130;28;20032;-64
2022/02/26 07:21:27;;;;;;;17.35;3.90;;;7.70;95.70;;;;;;5041467;28;20020;-64
2022/02/26 07:23:54;;;;;;;16.10;4.20;;;7.70;95.70;;;;;;5047109;28;20110;-63
2022/02/26 07:26:20;;;;;;;12.57;3.53;;;7.70;95.50;;;;;;5049793;28;20496;-63
2022/02/26 07:28:45;;;;;;;13.88;3.45;;;7.80;95.40;;;;;;5051200;28;20120;-63
2022/02/26 07:31:11;;;;;;;18.52;3.78;;;7.80;95.30;;;;;;5046586;28;20047;-64
2022/02/26 07:33:36;;;;;;;22.38;4.00;;;7.80;95.40;;;;;;5044450;28;20025;-64
2022/02/26 07:36:03;;;;;;;10.82;3.83;;;7.80;95.30;;;;;;5042567;28;20488;-64
2022/02/26 07:38:28;;;;;;;18.98;3.45;;;7.80;95.20;;;;;;5040168;28;20068;-63
2022/02/26 07:40:54;;;;;;;14.45;3.13;;;7.80;95.20;;;;;;5053757;28;20444;-62
2022/02/26 07:43:19;;;;;;;20.40;4.30;;;7.90;95.30;;;;;;5042976;28;20083;-63
2022/02/26 07:45:45;;;;;;;17.77;3.92;;;7.90;95.20;;;;;;5039041;28;20037;-63
2022/02/26 07:48:11;;;;;;;18.25;3.50;;;7.90;94.90;;;;;;5048019;28;20507;-64
2022/02/26 07:50:36;;;;;;;17.63;3.78;;;7.80;95.00;;;;;;5048919;28;20022;-63
2022/02/26 07:53:02;;;;;;;14.25;4.00;;;7.90;95.00;;;;;;5052749;28;20029;-63
2022/02/26 07:55:28;;;;;;;19.70;4.53;;;7.90;94.90;;;;;;5038211;28;20028;-63
2022/02/26 07:57:53;;;;;;;15.50;3.92;;;7.90;94.90;;;;;;5042822;28;20056;-63
2022/02/26 08:00:19;;;;;;;14.52;3.95;;;7.90;94.90;;;;;;5037920;28;20036;-63
2022/02/26 08:02:44;;;;;;;18.88;4.93;;;7.90;94.90;;;;;;5047927;28;20186;-64
2022/02/26 08:05:10;;;;;;;14.70;5.10;;;7.90;94.80;;;;;;5038417;28;20021;-62
2022/02/26 08:07:35;;;;;;;11.40;3.75;;;7.90;94.90;;;;;;5037102;28;20025;-61
2022/02/26 08:10:02;;;;;;;13.50;3.95;;;7.90;94.70;;;;;;5048777;28;20120;-62
2022/02/26 08:12:28;;;;;;;16.75;6.05;;;8.00;94.80;;;;;;5052588;28;20753;-62
2022/02/26 08:14:53;;;;;;;44.13;11.20;;;8.00;94.70;;;;;;5049821;28;20038;-63
2022/02/26 08:17:19;;;;;;;28.13;6.57;;;8.00;94.90;;;;;;5057255;28;20047;-62
2022/02/26 08:19:44;;;;;;;22.83;4.93;;;8.10;94.90;;;;;;5049543;28;20025;-62
2022/02/26 08:22:10;;;;;;;22.38;4.55;;;8.10;94.90;;;;;;5054393;28;20116;-62
2022/02/26 08:24:36;;;;;;;17.30;4.15;;;8.20;94.90;;;;;;5029837;28;20436;-62
2022/02/26 08:27:02;;;;;;;14.07;4.18;;;8.30;94.90;;;;;;5047945;28;20495;-63
2022/02/26 08:29:27;;;;;;;15.82;4.32;;;8.20;94.50;;;;;;5037001;28;20025;-63
2022/02/26 08:31:53;;;;;;;18.40;4.10;;;8.20;94.60;;;;;;5031455;28;20021;-63
2022/02/26 08:34:18;;;;;;;15.80;3.85;;;8.20;94.60;;;;;;5044195;28;20024;-62
2022/02/26 08:36:44;;;;;;;16.48;3.95;;;8.30;94.60;;;;;;5044268;28;20041;-62
2022/02/26 08:39:10;;;;;;;15.32;4.30;;;8.40;94.60;;;;;;5034080;28;20056;-62
2022/02/26 08:41:35;;;;;;;14.00;5.15;;;8.40;94.40;;;;;;5051131;28;20025;-62
2022/02/26 08:44:01;;;;;;;10.95;3.58;;;8.30;94.40;;;;;;5036396;28;20026;-62
2022/02/26 08:46:26;;;;;;;13.18;3.42;;;8.40;94.40;;;;;;5041134;28;20029;-63
2022/02/26 08:48:52;;;;;;;21.48;4.05;;;8.40;94.30;;;;;;5047900;28;20465;-63
2022/02/26 08:51:18;;;;;;;12.95;4.13;;;8.40;94.20;;;;;;5043844;28;20075;-62
2022/02/26 08:53:43;;;;;;;7.65;4.00;;;8.30;93.70;;;;;;5042609;28;20468;-62
2022/02/26 08:56:09;;;;;;;12.77;4.00;;;8.20;93.70;;;;;;5065390;28;20036;-62
2022/02/26 08:58:34;;;;;;;14.15;3.63;;;8.20;93.70;;;;;;5056638;28;20033;-62
2022/02/26 09:01:00;;;;;;;10.63;3.42;;;8.30;93.90;;;;;;5057838;28;20030;-63
2022/02/26 09:03:25;;;;;;;15.63;3.85;;;8.30;93.90;;;;;;5051420;28;20076;-63
2022/02/26 09:05:51;;;;;;;12.00;4.00;;;8.30;93.70;;;;;;5050152;28;20044;-63
2022/02/26 09:08:17;;;;;;;12.80;3.30;;;8.30;93.40;;;;;;5049290;28;20029;-63
2022/02/26 09:10:42;;;;;;;11.50;3.50;;;8.30;93.70;;;;;;5038188;28;20025;-63
2022/02/26 09:13:08;;;;;;;15.30;3.72;;;8.30;93.60;;;;;;5026689;28;20026;-63
2022/02/26 09:15:34;;;;;;;9.10;2.97;;;8.30;93.40;;;;;;5032480;28;20029;-63
2022/02/26 09:17:59;;;;;;;11.20;3.00;;;8.20;93.60;;;;;;5035210;28;20041;-63
2022/02/26 09:20:25;;;;;;;13.50;4.15;;;8.30;93.50;;;;;;5042119;28;20018;-64
2022/02/26 09:22:50;;;;;;;8.07;3.13;;;8.30;93.40;;;;;;5058805;28;20028;-63
2022/02/26 09:25:16;;;;;;;8.48;2.90;;;8.30;93.40;;;;;;5061022;28;20029;-63
2022/02/26 09:27:43;;;;;;;10.68;2.75;;;8.30;93.40;;;;;;5055214;28;20079;-63
2022/02/26 09:30:10;;;;;;;11.63;4.38;;;8.30;93.40;;;;;;5061050;28;20094;-63
2022/02/26 09:32:36;;;;;;;15.30;3.83;;;8.30;93.40;;;;;;5049590;28;20101;-63
2022/02/26 09:35:01;;;;;;;10.60;2.78;;;8.30;93.50;;;;;;5042856;28;20120;-63
2022/02/26 09:37:27;;;;;;;12.50;3.45;;;8.30;93.20;;;;;;5054776;28;20487;-64
2022/02/26 09:39:54;;;;;;;11.07;3.25;;;8.40;93.10;;;;;;5056041;28;20028;-64
2022/02/26 09:42:22;;;;;;;8.00;3.08;;;8.30;93.10;;;;;;5045834;28;20094;-64
2022/02/26 09:44:49;;;;;;;12.23;3.20;;;8.30;93.20;;;;;;5074444;28;20044;-64
2022/02/26 09:47:15;;;;;;;6.40;2.85;;;8.40;93.20;;;;;;5046428;28;20128;-63
2022/02/26 09:49:40;;;;;;;8.85;2.72;;;8.40;93.00;;;;;;5042403;28;20099;-63
2022/02/26 09:52:08;;;;;;;9.82;3.00;;;8.50;93.10;;;;;;5049660;28;20037;-63
2022/02/26 09:54:34;;;;;;;13.75;3.45;;;8.50;93.00;;;;;;5051739;28;20664;-63
2022/02/26 09:56:59;;;;;;;9.57;3.03;;;8.50;93.10;;;;;;5042237;28;20050;-64
2022/02/26 09:59:25;;;;;;;8.68;3.00;;;8.50;93.00;;;;;;5059094;28;20078;-64
2022/02/26 10:01:59;;;;;;;8.10;2.92;;;8.50;93.00;;;;;;5051351;28;20086;-63
2022/02/26 10:04:24;;;;;;;11.38;3.03;;;8.50;92.90;;;;;;5040468;28;20039;-63
2022/02/26 10:06:50;;;;;;;11.98;3.30;;;8.50;92.80;;;;;;5038238;28;20025;-63
2022/02/26 10:09:16;;;;;;;10.32;3.42;;;8.50;92.80;;;;;;5038919;28;20029;-63
2022/02/26 10:11:42;;;;;;;8.02;3.13;;;8.50;92.90;;;;;;5029261;28;20072;-64
2022/02/26 10:14:14;;;;;;;8.45;2.75;;;8.50;92.90;;;;;;5043901;28;20056;-64
2022/02/26 10:16:54;;;;;;;11.52;3.42;;;8.50;92.80;;;;;;5041990;28;20048;-64
2022/02/26 10:19:23;;;;;;;8.10;2.42;;;8.50;92.60;;;;;;5051054;28;20061;-64
2022/02/26 10:21:49;;;;;;;12.60;2.90;;;8.40;92.60;;;;;;5065033;28;20033;-64
2022/02/26 10:24:16;;;;;;;9.52;2.80;;;8.40;92.60;;;;;;5034390;28;20037;-64
2022/02/26 10:26:48;;;;;;;8.25;2.35;;;8.40;92.70;;;;;;5035981;28;20017;-63
2022/02/26 10:29:19;;;;;;;15.60;4.00;;;8.30;92.60;;;;;;5052624;28;20111;-64
2022/02/26 10:31:48;;;;;;;6.90;2.35;;;8.30;92.70;;;;;;5054428;28;20508;-63
2022/02/26 10:34:34;;;;;;;10.15;3.35;;;8.30;92.50;;;;;;5047280;28;20033;-64
2022/02/26 10:37:06;;;;;;;6.25;2.50;;;8.30;92.50;;;;;;5047461;28;20045;-63
2022/02/26 10:39:43;;;;;;;12.18;4.00;;;8.20;92.40;;;;;;5041425;28;20053;-63
2022/02/26 10:42:18;;;;;;;8.93;2.42;;;8.20;92.60;;;;;;5033710;28;20034;-64
2022/02/26 10:44:44;;;;;;;11.07;4.00;;;8.10;92.80;;;;;;5051522;28;20052;-64
2022/02/26 10:47:13;;;;;;;6.47;2.45;;;8.00;92.90;;;;;;5043579;28;20025;-64
2022/02/26 10:49:43;;;;;;;9.20;2.83;;;7.90;93.00;;;;;;5059441;28;20045;-63
2022/02/26 10:52:10;;;;;;;7.63;2.65;;;7.80;93.10;;;;;;5046629;28;20043;-64
2022/02/26 10:54:38;;;;;;;8.55;2.85;;;7.80;93.20;;;;;;5039483;28;20018;-64
2022/02/26 10:57:05;;;;;;;10.32;3.20;;;7.80;93.40;;;;;;5047615;28;20050;-64
2022/02/26 10:59:33;;;;;;;8.98;2.63;;;7.80;93.30;;;;;;5032814;28;20032;-63
2022/02/26 11:02:04;;;;;;;10.05;2.95;;;7.90;93.40;;;;;;5045692;28;20049;-63
2022/02/26 11:04:30;;;;;;;11.07;3.13;;;7.90;93.40;;;;;;5041570;28;20108;-63
2022/02/26 11:06:56;;;;;;;8.43;2.17;;;8.00;93.40;;;;;;5050717;28;20120;-63
2022/02/26 11:09:22;;;;;;;8.32;2.60;;;8.00;93.30;;;;;;5039412;28;20078;-64
2022/02/26 11:11:51;;;;;;;7.93;2.60;;;8.00;93.20;;;;;;5059623;28;20032;-63
2022/02/26 11:14:21;;;;;;;6.45;2.97;;;8.00;93.20;;;;;;5050969;28;20417;-63
2022/02/26 11:16:49;;;;;;;8.25;3.33;;;8.10;93.10;;;;;;5032775;28;20030;-63
2022/02/26 11:19:19;;;;;;;7.30;2.90;;;8.10;93.00;;;;;;5034736;28;20040;-63
2022/02/26 11:21:48;;;;;;;6.65;2.30;;;8.20;93.10;;;;;;5036526;28;20032;-63
2022/02/26 11:24:16;;;;;;;6.15;2.25;;;8.30;93.00;;;;;;5040009;28;20033;-64
2022/02/26 11:26:42;;;;;;;7.65;2.38;;;8.30;92.90;;;;;;5044564;28;20082;-64
2022/02/26 11:29:10;;;;;;;9.18;2.47;;;8.50;92.80;;;;;;5043411;28;20033;-63
2022/02/26 11:31:42;;;;;;;10.38;2.60;;;8.40;92.40;;;;;;5048080;28;20060;-63
2022/02/26 11:34:08;;;;;;;7.40;3.17;;;8.40;92.40;;;;;;5027912;28;20412;-63
2022/02/26 11:36:51;;;;;;;10.60;2.65;;;8.40;92.60;;;;;;5031723;28;20050;-67
2022/02/26 11:39:22;;;;;;;7.72;2.17;;;8.40;92.80;;;;;;5031138;28;20037;-64
2022/02/26 11:41:48;;;;;;;8.93;2.67;;;8.50;92.60;;;;;;5028944;28;20061;-64
2022/02/26 11:44:13;;;;;;;9.02;2.97;;;8.50;92.50;;;;;;5027070;28;20034;-64
2022/02/26 11:46:39;;;;;;;8.75;2.90;;;8.60;92.60;;;;;;5029096;28;20044;-63
2022/02/26 11:49:19;;;;;;;7.75;2.88;;;8.70;92.50;;;;;;5028812;28;20032;-63
2022/02/26 11:51:47;;;;;;;8.93;2.65;;;8.70;92.50;;;;;;5031083;28;20692;-63
2022/02/26 11:54:16;;;;;;;8.55;2.85;;;8.70;92.20;;;;;;5028992;28;20034;-63
2022/02/26 11:56:42;;;;;;;6.43;2.47;;;8.70;92.20;;;;;;5029460;28;20045;-63
2022/02/26 11:59:08;;;;;;;12.93;2.70;;;8.80;92.10;;;;;;5029357;28;20020;-63
2022/02/26 12:01:34;;;;;;;7.68;2.75;;;8.70;91.90;;;;;;5030805;28;20041;-64
2022/02/26 12:03:59;;;;;;;7.28;2.80;;;8.80;92.00;;;;;;5029312;28;20037;-64
2022/02/26 12:06:30;;;;;;;7.90;2.63;;;8.80;92.10;;;;;;5030744;28;20713;-64
2022/02/26 12:09:07;;;;;;;7.97;2.33;;;8.70;91.40;;;;;;5029216;28;20037;-64
2022/02/26 12:11:42;;;;;;;6.97;2.50;;;8.70;91.70;;;;;;5030617;28;20029;-63
2022/02/26 12:14:09;;;;;;;;;;;8.70;91.80;;;;;;5029288;28;20117;-63
2022/02/26 12:16:38;;;;;;;15.30;2.83;;;8.80;91.70;;;;;;5030577;28;20375;-63
2022/02/26 12:19:09;;;;;;;8.50;2.53;;;8.70;91.40;;;;;;5028307;28;20468;-63
2022/02/26 12:21:46;;;;;;;11.32;3.40;;;8.70;91.10;;;;;;5013966;28;20152;-63
2022/02/26 12:24:27;;;;;;;6.78;2.05;;;8.70;91.00;;;;;;5029166;28;20032;-63
2022/02/26 12:27:10;;;;;;;8.65;2.17;;;8.60;91.20;;;;;;5029297;28;20034;-64
2022/02/26 12:29:44;;;;;;;5.70;2.42;;;8.60;91.40;;;;;;5034553;28;20531;-64
2022/02/26 12:32:24;;;;;;;8.75;3.75;;;8.80;91.50;;;;;;5027817;28;20073;-63
2022/02/26 12:35:10;;;;;;;9.68;2.20;;;8.70;91.30;;;;;;5028514;28;20141;-63
2022/02/26 12:37:38;;;;;;;9.43;2.60;;;8.70;90.80;;;;;;5029927;28;20068;-64
2022/02/26 12:40:05;;;;;;;7.88;2.58;;;8.70;91.00;;;;;;5029105;28;20665;-64
2022/02/26 12:42:34;;;;;;;8.95;2.80;;;8.70;91.10;;;;;;5030296;28;20037;-63
2022/02/26 12:45:04;;;;;;;7.38;2.42;;;8.80;91.00;;;;;;5030764;28;20057;-64